Time;durP1;ratioP1;P1;durP2;ratioP2;P2;SDS_P1;SDS_P2;PMS_P1;PMS_P2;Temp;Humidity;BMP_temperature;BMP_pressure;BME280_temperature;BME280_humidity;BME280_pressure;Samples;Min_cycle;Max_cycle;Signal;HPM_P1;HPM_P2
2023/09/15 00:02:28;;;;;;;11.38;1.52;;;;;;;21.76;64.34;100219.41;5328912;26;32440;-81
2023/09/15 00:04:55;;;;;;;0.47;0.43;;;;;;;21.67;64.39;100221.88;5330490;26;33543;-81
2023/09/15 00:07:23;;;;;;;1.52;1.05;;;;;;;21.65;64.46;100223.00;5329754;26;33496;-81
2023/09/15 00:09:52;;;;;;;0.65;0.65;;;;;;;21.64;64.35;100226.63;5330329;26;33836;-80
2023/09/15 00:12:20;;;;;;;1.05;1.00;;;;;;;21.61;64.06;100218.84;5348813;26;33238;-81
2023/09/15 00:14:47;;;;;;;1.00;0.98;;;;;;;21.66;63.39;100224.69;5366883;26;33934;-82
2023/09/15 00:17:15;;;;;;;0.90;0.57;;;;;;;21.59;63.56;100221.66;5347919;26;33176;-81
2023/09/15 00:19:43;;;;;;;1.60;1.10;;;;;;;21.67;63.44;100226.41;5348916;26;33671;-81
2023/09/15 00:22:10;;;;;;;0.52;0.52;;;;;;;21.62;63.54;100224.09;5348543;26;32151;-81
2023/09/15 00:24:40;;;;;;;3.05;0.68;;;;;;;21.59;63.46;100235.09;5367311;26;34479;-81
2023/09/15 00:27:09;;;;;;;0.90;0.65;;;;;;;21.54;63.45;100231.91;5367849;26;33892;-81
2023/09/15 00:29:37;;;;;;;0.85;0.75;;;;;;;21.61;62.97;100235.81;5348971;26;34083;-81
2023/09/15 00:32:07;;;;;;;0.20;0.20;;;;;;;21.57;62.97;100231.69;5366945;26;33077;-81
2023/09/15 00:34:35;;;;;;;0.32;0.32;;;;;;;21.55;63.07;100244.37;5329906;26;32808;-80
2023/09/15 00:37:02;;;;;;;2.87;0.65;;;;;;;21.42;63.58;100241.84;5366817;26;34950;-81
2023/09/15 00:39:30;;;;;;;0.75;0.68;;;;;;;21.42;63.52;100243.69;5367413;26;33961;-81
2023/09/15 00:41:58;;;;;;;0.85;0.62;;;;;;;21.38;63.74;100248.47;5367034;26;33115;-80
2023/09/15 00:44:26;;;;;;;2.15;1.45;;;;;;;21.48;63.39;100240.50;5348359;26;32750;-81
2023/09/15 00:46:54;;;;;;;1.80;0.98;;;;;;;21.50;63.50;100248.41;5367777;26;33782;-81
2023/09/15 00:49:22;;;;;;;1.33;1.23;;;;;;;21.53;63.18;100248.19;5348874;26;34021;-81
2023/09/15 00:51:50;;;;;;;0.65;0.62;;;;;;;21.64;62.05;100243.63;5366496;26;33443;-81
2023/09/15 00:54:18;;;;;;;0.75;0.55;;;;;;;21.48;62.39;100245.88;5366872;26;33636;-82
2023/09/15 00:56:46;;;;;;;0.25;0.25;;;;;;;21.55;62.31;100248.91;5347925;26;32711;-81
2023/09/15 00:59:14;;;;;;;1.48;1.20;;;;;;;21.50;62.08;100243.91;5348676;26;32742;-81
2023/09/15 01:01:42;;;;;;;1.48;1.25;;;;;;;21.38;62.24;100252.97;5367009;26;32396;-81
2023/09/15 01:04:10;;;;;;;1.37;1.27;;;;;;;21.41;61.81;100242.84;5348686;26;32953;-81
2023/09/15 01:06:38;;;;;;;0.52;0.52;;;;;;;21.19;62.62;100249.06;5329911;26;33108;-80
2023/09/15 01:09:08;;;;;;;0.30;0.30;;;;;;;21.33;62.12;100253.34;5348935;26;33121;-80
2023/09/15 01:11:36;;;;;;;0.95;0.55;;;;;;;21.31;62.30;100249.06;5367345;26;33529;-81
2023/09/15 01:14:03;;;;;;;2.75;1.08;;;;;;;21.23;62.44;100245.16;5348238;26;32994;-80
2023/09/15 01:16:41;;;;;;;0.68;0.68;;;;;;;21.18;62.79;100247.37;5348742;26;34766;-82
2023/09/15 01:19:31;;;;;;;1.42;0.80;;;;;;;21.22;62.71;100251.50;5329438;26;33187;-80
2023/09/15 01:22:24;;;;;;;0.25;0.25;;;;;;;21.30;62.45;100245.50;5348815;26;33431;-81
2023/09/15 01:25:16;;;;;;;0.45;0.40;;;;;;;21.27;62.17;100242.19;5366490;26;33820;-81
2023/09/15 01:28:06;;;;;;;1.25;0.52;;;;;;;21.34;61.70;100240.78;5387017;26;34488;-82
2023/09/15 01:30:35;;;;;;;0.50;0.50;;;;;;;21.36;61.40;100246.87;5367248;26;33953;-82
2023/09/15 01:33:05;;;;;;;0.95;0.82;;;;;;;21.10;62.04;100249.81;5329238;26;32268;-82
2023/09/15 01:35:32;;;;;;;0.80;0.80;;;;;;;21.12;62.09;100247.00;5348831;26;33637;-82
2023/09/15 01:38:00;;;;;;;0.43;0.43;;;;;;;21.15;62.01;100247.59;5366121;26;33592;-83
2023/09/15 01:40:28;;;;;;;0.62;0.62;;;;;;;21.19;61.82;100248.22;5366824;26;33975;-82
2023/09/15 01:42:57;;;;;;;0.57;0.57;;;;;;;21.10;62.01;100249.81;5349088;26;33445;-82
2023/09/15 01:45:25;;;;;;;1.15;1.15;;;;;;;21.11;61.69;100254.19;5366732;26;33745;-82
2023/09/15 01:47:54;;;;;;;1.05;0.98;;;;;;;21.13;61.27;100259.47;5349254;26;33417;-82
2023/09/15 01:50:22;;;;;;;1.40;1.20;;;;;;;21.00;61.27;100254.22;5328896;26;33888;-82
2023/09/15 01:52:51;;;;;;;0.30;0.30;;;;;;;20.97;61.23;100255.28;5367072;26;34079;-81
2023/09/15 01:55:19;;;;;;;2.10;0.75;;;;;;;21.06;60.77;100259.06;5348567;26;33767;-82
2023/09/15 01:57:47;;;;;;;1.08;0.98;;;;;;;21.11;60.42;100262.25;5348573;26;35164;-82
2023/09/15 02:00:16;;;;;;;0.50;0.50;;;;;;;21.12;60.30;100268.47;5348708;26;33585;-80
2023/09/15 02:02:44;;;;;;;1.05;0.85;;;;;;;20.96;60.67;100266.16;5348415;26;33416;-80
2023/09/15 02:05:19;;;;;;;1.52;0.60;;;;;;;21.01;60.33;100266.66;5366696;26;34382;-81
2023/09/15 02:07:47;;;;;;;0.93;0.93;;;;;;;20.91;60.58;100265.69;5348893;26;33412;-80
2023/09/15 02:10:15;;;;;;;1.67;1.58;;;;;;;20.87;60.68;100264.22;5349231;26;33959;-81
2023/09/15 02:12:43;;;;;;;1.05;0.95;;;;;;;20.81;60.98;100270.91;5366297;26;33482;-81
2023/09/15 02:15:14;;;;;;;3.00;0.98;;;;;;;20.61;61.77;100269.81;5330273;26;32787;-81
2023/09/15 02:17:43;;;;;;;0.60;0.60;;;;;;;20.75;61.23;100270.53;5349715;26;34123;-81
2023/09/15 02:20:11;;;;;;;1.08;0.65;;;;;;;20.70;61.22;100263.72;5349527;26;33873;-81
2023/09/15 02:22:42;;;;;;;0.82;0.82;;;;;;;20.58;61.46;100264.66;5368072;26;32951;-82
2023/09/15 02:25:10;;;;;;;0.65;0.62;;;;;;;20.49;62.00;100265.38;5330774;26;33805;-81
2023/09/15 02:27:38;;;;;;;0.25;0.25;;;;;;;20.37;62.45;100267.16;5348553;26;32987;-82
2023/09/15 02:30:07;;;;;;;1.42;1.23;;;;;;;20.48;62.44;100260.16;5330274;26;32490;-81
2023/09/15 02:32:35;;;;;;;0.80;0.80;;;;;;;20.45;62.30;100258.50;5349534;26;33143;-82
2023/09/15 02:35:03;;;;;;;1.27;0.88;;;;;;;20.44;62.53;100263.03;5330333;26;32728;-81
2023/09/15 02:37:31;;;;;;;2.10;1.65;;;;;;;20.37;63.09;100271.69;5366075;26;34017;-81
2023/09/15 02:39:59;;;;;;;0.73;0.73;;;;;;;20.40;63.11;100255.34;5346368;26;32870;-81
2023/09/15 02:42:27;;;;;;;0.70;0.70;;;;;;;20.56;62.42;100253.22;5343321;26;31942;-81
2023/09/15 02:44:55;;;;;;;0.77;0.65;;;;;;;20.60;62.19;100256.50;5325824;26;34320;-81
2023/09/15 02:47:23;;;;;;;0.77;0.77;;;;;;;20.43;62.84;100260.47;5327037;26;33377;-81
2023/09/15 02:49:51;;;;;;;2.20;0.70;;;;;;;20.57;62.42;100257.59;5326124;26;33029;-82
2023/09/15 02:52:19;;;;;;;1.05;1.05;;;;;;;20.52;62.62;100251.75;5325699;26;33855;-80
2023/09/15 02:54:50;;;;;;;1.08;0.93;;;;;;;20.50;62.33;100251.00;5324571;26;33844;-81
2023/09/15 02:57:17;;;;;;;1.45;1.25;;;;;;;20.20;63.04;100249.69;5324295;26;33567;-81
2023/09/15 02:59:45;;;;;;;0.85;0.82;;;;;;;20.50;61.80;100256.34;5342694;26;33591;-81
2023/09/15 03:02:14;;;;;;;1.25;1.15;;;;;;;20.66;61.17;100262.25;5325527;26;33386;-81
2023/09/15 03:04:45;;;;;;;1.98;1.48;;;;;;;20.30;62.22;100260.56;5326456;26;32755;-81
2023/09/15 03:07:14;;;;;;;13.90;1.80;;;;;;;20.09;63.01;100264.88;5308535;26;32756;-80
2023/09/15 03:09:43;;;;;;;0.85;0.75;;;;;;;20.01;63.39;100259.25;5326313;26;34248;-81
2023/09/15 03:12:11;;;;;;;3.83;1.55;;;;;;;20.14;62.72;100257.34;5327364;26;34102;-81
2023/09/15 03:14:39;;;;;;;4.45;2.10;;;;;;;20.46;61.84;100254.84;5308488;26;32500;-81
2023/09/15 03:17:07;;;;;;;0.80;0.68;;;;;;;20.17;62.61;100255.25;5326964;26;33673;-81
2023/09/15 03:19:35;;;;;;;2.87;1.00;;;;;;;19.95;63.46;100263.25;5327137;26;33995;-81
2023/09/15 03:22:03;;;;;;;1.27;1.12;;;;;;;19.97;63.58;100258.63;5327477;26;34520;-81
2023/09/15 03:24:36;;;;;;;0.57;0.57;;;;;;;20.02;63.27;100267.16;5346243;26;33703;-81
2023/09/15 03:27:05;;;;;;;1.33;1.12;;;;;;;19.97;63.36;100263.13;5327337;26;33943;-81
2023/09/15 03:29:32;;;;;;;0.73;0.73;;;;;;;19.98;63.39;100263.00;5345370;26;34522;-81
2023/09/15 03:32:00;;;;;;;0.62;0.62;;;;;;;20.03;63.11;100254.59;5307324;26;32410;-81
2023/09/15 03:34:28;;;;;;;3.30;1.00;;;;;;;19.92;63.30;100253.59;5326775;26;32594;-81
2023/09/15 03:36:56;;;;;;;0.50;0.50;;;;;;;20.10;62.74;100256.72;5326492;26;33207;-80
2023/09/15 03:39:24;;;;;;;0.57;0.57;;;;;;;19.90;63.15;100263.59;5327020;26;33477;-80
2023/09/15 03:41:52;;;;;;;2.00;1.37;;;;;;;19.98;62.85;100270.19;5330625;26;32294;-81
2023/09/15 03:44:21;;;;;;;1.50;1.40;;;;;;;19.93;63.07;100278.56;5366769;26;33639;-80
2023/09/15 03:46:49;;;;;;;0.65;0.55;;;;;;;19.98;62.75;100265.69;5348193;26;33961;-81
2023/09/15 03:49:17;;;;;;;1.02;0.98;;;;;;;19.88;63.37;100272.69;5330367;26;32707;-80
2023/09/15 03:51:46;;;;;;;0.93;0.93;;;;;;;19.71;63.92;100273.97;5367276;26;34299;-82
2023/09/15 03:54:14;;;;;;;1.10;1.00;;;;;;;19.85;63.43;100264.91;5367536;26;33576;-80
2023/09/15 03:56:42;;;;;;;2.22;0.47;;;;;;;19.76;63.82;100273.63;5348661;26;33120;-80
2023/09/15 03:59:10;;;;;;;3.22;0.70;;;;;;;19.75;63.88;100278.16;5348698;26;32953;-81
2023/09/15 04:01:38;;;;;;;0.62;0.62;;;;;;;19.61;63.94;100272.94;5367764;26;33025;-80
2023/09/15 04:04:07;;;;;;;0.73;0.68;;;;;;;19.56;64.28;100273.25;5366644;26;34138;-81
2023/09/15 04:06:35;;;;;;;0.68;0.68;;;;;;;19.69;63.85;100278.56;5349183;26;32990;-80
2023/09/15 04:09:24;;;;;;;0.55;0.45;;;;;;;19.58;64.28;100274.00;5387774;26;34643;-81
2023/09/15 04:11:53;;;;;;;0.43;0.43;;;;;;;19.68;64.03;100279.56;5367710;26;33396;-80
2023/09/15 04:14:21;;;;;;;2.35;0.80;;;;;;;19.66;63.95;100279.69;5330161;26;34057;-81
2023/09/15 04:16:49;;;;;;;1.02;1.02;;;;;;;19.75;63.39;100285.31;5330589;26;33684;-81
2023/09/15 04:19:17;;;;;;;1.30;1.20;;;;;;;19.54;63.98;100290.41;5348636;26;33022;-81
2023/09/15 04:21:45;;;;;;;0.40;0.40;;;;;;;19.58;63.92;100290.06;5366557;26;32325;-81
2023/09/15 04:24:13;;;;;;;1.12;1.02;;;;;;;19.62;63.77;100296.94;5365399;26;34602;-82
2023/09/15 04:26:42;;;;;;;1.87;1.73;;;;;;;19.69;63.70;100298.19;5346109;26;32826;-81
2023/09/15 04:29:11;;;;;;;1.87;0.73;;;;;;;19.61;64.05;100291.72;5346586;26;33067;-81
2023/09/15 04:31:39;;;;;;;0.45;0.45;;;;;;;19.55;64.23;100300.12;5365151;26;33033;-81
2023/09/15 04:34:07;;;;;;;0.60;0.60;;;;;;;19.58;64.30;100295.41;5346116;26;32857;-80
2023/09/15 04:36:35;;;;;;;2.00;1.73;;;;;;;19.73;63.81;100287.25;5385206;26;34351;-80
2023/09/15 04:39:05;;;;;;;1.00;0.90;;;;;;;19.66;63.95;100293.06;5365271;26;35089;-82
2023/09/15 04:41:33;;;;;;;1.15;0.75;;;;;;;19.72;63.85;100302.47;5346369;26;34104;-82
2023/09/15 04:44:01;;;;;;;4.47;1.37;;;;;;;19.79;63.49;100297.50;5364577;26;34321;-82
2023/09/15 04:46:28;;;;;;;0.95;0.80;;;;;;;19.64;64.12;100305.69;5364479;26;35366;-82
2023/09/15 04:48:56;;;;;;;0.70;0.70;;;;;;;19.58;64.51;100308.81;5346040;26;32898;-81
2023/09/15 04:51:24;;;;;;;0.95;0.95;;;;;;;19.60;64.56;100301.53;5346179;26;33306;-82
2023/09/15 04:53:53;;;;;;;1.75;1.42;;;;;;;19.73;64.22;100297.97;5346437;26;34374;-81
2023/09/15 04:56:21;;;;;;;0.82;0.82;;;;;;;19.64;64.67;100300.34;5346151;26;32763;-82
2023/09/15 04:58:49;;;;;;;2.08;1.87;;;;;;;19.80;64.24;100300.09;5326857;26;33799;-80
2023/09/15 05:01:19;;;;;;;1.05;0.95;;;;;;;19.82;64.22;100299.97;5345971;26;33609;-81
2023/09/15 05:03:47;;;;;;;0.95;0.70;;;;;;;19.83;64.51;100301.66;5364880;26;33585;-80
2023/09/15 05:06:15;;;;;;;0.35;0.35;;;;;;;19.93;64.57;100297.34;5346089;26;33898;-80
2023/09/15 05:08:43;;;;;;;1.80;1.70;;;;;;;20.14;63.81;100295.72;5345966;26;32759;-80
2023/09/15 05:11:11;;;;;;;5.50;1.25;;;;;;;20.05;64.36;100304.47;5327237;26;32356;-81
2023/09/15 05:13:38;;;;;;;0.40;0.40;;;;;;;20.08;64.61;100298.88;5326985;26;34039;-81
2023/09/15 05:16:07;;;;;;;0.35;0.35;;;;;;;20.42;63.76;100297.16;5365220;26;32857;-81
2023/09/15 05:18:35;;;;;;;1.33;1.08;;;;;;;20.32;64.39;100300.66;5346924;26;32689;-81
2023/09/15 05:21:03;;;;;;;1.05;0.37;;;;;;;20.36;64.49;100302.97;5364973;26;34079;-81
2023/09/15 05:23:31;;;;;;;1.25;0.62;;;;;;;20.40;64.52;100300.94;5327656;26;33575;-82
2023/09/15 05:25:59;;;;;;;3.33;1.58;;;;;;;20.59;63.88;100303.09;5365395;26;33595;-82
2023/09/15 05:28:27;;;;;;;1.17;0.95;;;;;;;20.83;62.79;100301.16;5343732;26;34389;-81
2023/09/15 05:30:59;;;;;;;0.85;0.85;;;;;;;20.80;62.94;100304.09;5345299;26;34246;-79
2023/09/15 05:33:29;;;;;;;4.55;0.90;;;;;;;20.76;63.49;100293.72;5347117;26;32858;-79
2023/09/15 05:35:57;;;;;;;2.42;0.50;;;;;;;20.67;63.98;100301.53;5346458;26;32947;-79
2023/09/15 05:38:25;;;;;;;3.12;1.58;;;;;;;20.70;64.21;100297.75;5327199;26;34422;-79
2023/09/15 05:40:53;;;;;;;1.95;1.10;;;;;;;20.93;63.68;100301.28;5345843;26;33129;-79
2023/09/15 05:43:21;;;;;;;1.08;0.75;;;;;;;21.18;63.09;100306.44;5342283;26;34802;-79
2023/09/15 05:45:48;;;;;;;2.10;1.73;;;;;;;21.32;62.81;100307.22;5342315;26;33810;-80
2023/09/15 05:48:22;;;;;;;1.02;0.70;;;;;;;21.25;63.01;100305.94;5343158;26;34254;-79
2023/09/15 05:50:51;;;;;;;3.20;1.17;;;;;;;21.15;63.13;100306.69;5342522;26;32880;-79
2023/09/15 05:53:19;;;;;;;2.05;1.42;;;;;;;21.10;62.94;100313.41;5360998;26;32824;-79
2023/09/15 05:55:47;;;;;;;2.25;1.08;;;;;;;21.18;62.62;100306.44;5342691;26;33204;-79
2023/09/15 05:58:14;;;;;;;0.75;0.75;;;;;;;21.20;62.45;100303.62;5361012;26;34200;-79
2023/09/15 06:00:42;;;;;;;3.87;2.15;;;;;;;21.32;62.07;100310.75;5323488;26;33343;-79
2023/09/15 06:03:10;;;;;;;0.88;0.88;;;;;;;21.62;61.26;100307.41;5323569;26;32641;-79
2023/09/15 06:05:39;;;;;;;0.55;0.50;;;;;;;21.42;61.24;100302.81;5324364;26;33045;-79
2023/09/15 06:08:08;;;;;;;3.15;0.82;;;;;;;21.25;61.64;100311.31;5361436;26;33612;-80
2023/09/15 06:10:36;;;;;;;0.45;0.45;;;;;;;21.47;61.71;100309.50;5343166;26;33771;-80
2023/09/15 06:13:04;;;;;;;0.52;0.52;;;;;;;21.76;61.18;100316.16;5343160;26;33015;-80
2023/09/15 06:15:34;;;;;;;0.90;0.85;;;;;;;21.93;59.58;100313.81;5360373;26;33543;-80
2023/09/15 06:18:02;;;;;;;1.45;1.10;;;;;;;21.81;59.93;100319.34;5342754;26;34544;-79
2023/09/15 06:20:31;;;;;;;1.35;1.25;;;;;;;21.62;60.88;100323.53;5342667;26;33647;-79
2023/09/15 06:22:59;;;;;;;2.62;0.62;;;;;;;21.86;60.33;100322.50;5343120;26;34593;-80
2023/09/15 06:25:27;;;;;;;0.20;0.20;;;;;;;21.95;59.72;100317.22;5342448;26;33520;-81
2023/09/15 06:27:54;;;;;;;0.47;0.47;;;;;;;21.93;60.03;100315.59;5323985;26;33308;-79
2023/09/15 06:30:34;;;;;;;2.53;1.27;;;;;;;22.09;59.11;100321.44;5362576;26;34378;-80
2023/09/15 06:33:02;;;;;;;0.55;0.55;;;;;;;22.02;58.78;100322.06;5323393;26;32853;-80
2023/09/15 06:35:30;;;;;;;0.75;0.75;;;;;;;21.79;59.85;100335.59;5342718;26;33956;-79
2023/09/15 06:37:58;;;;;;;1.45;0.80;;;;;;;21.76;60.22;100333.16;5342658;26;34303;-79
2023/09/15 06:40:25;;;;;;;2.37;1.23;;;;;;;21.85;59.43;100326.16;5342130;26;33570;-79
2023/09/15 06:42:53;;;;;;;4.53;1.67;;;;;;;21.93;59.08;100327.25;5359306;26;33658;-80
2023/09/15 06:45:21;;;;;;;3.08;0.90;;;;;;;22.01;60.02;100331.13;5342076;26;34009;-79
2023/09/15 06:47:49;;;;;;;1.42;1.33;;;;;;;22.11;59.50;100337.44;5360731;26;32955;-80
2023/09/15 06:50:17;;;;;;;2.22;0.65;;;;;;;21.82;60.70;100331.78;5342590;26;32888;-80
2023/09/15 06:52:45;;;;;;;0.40;0.40;;;;;;;21.76;60.83;100335.84;5343044;26;34094;-80
2023/09/15 06:55:13;;;;;;;0.77;0.77;;;;;;;22.42;57.59;100327.69;5343633;26;34780;-79
2023/09/15 06:57:41;;;;;;;0.75;0.40;;;;;;;22.51;58.08;100334.97;5362302;26;34234;-80
2023/09/15 07:00:10;;;;;;;0.57;0.50;;;;;;;22.32;59.29;100329.44;5362125;26;32708;-80
2023/09/15 07:02:37;;;;;;;5.47;0.50;;;;;;;22.66;58.59;100324.75;5343554;26;33652;-80
2023/09/15 07:05:05;;;;;;;3.28;0.82;;;;;;;22.98;57.78;100316.59;5361947;26;33352;-80
2023/09/15 07:07:33;;;;;;;1.42;0.80;;;;;;;23.32;55.87;100324.41;5361426;26;34618;-80
2023/09/15 07:10:01;;;;;;;0.50;0.37;;;;;;;23.10;56.31;100331.69;5326316;26;32644;-80
2023/09/15 07:12:28;;;;;;;2.12;1.30;;;;;;;23.09;56.77;100324.59;5327847;26;32949;-80
2023/09/15 07:14:58;;;;;;;15.25;1.65;;;;;;;23.24;55.69;100323.22;5364358;26;33639;-80
2023/09/15 07:17:26;;;;;;;2.53;0.82;;;;;;;23.23;56.01;100329.63;5327515;26;33145;-80
2023/09/15 07:19:53;;;;;;;0.70;0.70;;;;;;;23.79;55.89;100330.12;5326792;26;32662;-80
2023/09/15 07:22:21;;;;;;;0.95;0.82;;;;;;;24.15;54.29;100321.31;5346072;26;33837;-80
2023/09/15 07:24:49;;;;;;;1.12;0.77;;;;;;;24.31;54.37;100320.78;5344626;26;34483;-79
2023/09/15 07:27:17;;;;;;;1.73;1.50;;;;;;;24.37;53.33;100317.53;5345750;26;32689;-80
2023/09/15 07:29:45;;;;;;;1.40;1.25;;;;;;;24.63;53.57;100319.63;5364971;26;33397;-80
2023/09/15 07:32:13;;;;;;;2.05;1.20;;;;;;;24.59;52.84;100324.44;5346115;26;34022;-80
2023/09/15 07:34:40;;;;;;;4.10;1.37;;;;;;;24.45;53.08;100317.69;5346239;26;34671;-80
2023/09/15 07:37:09;;;;;;;0.75;0.75;;;;;;;24.60;51.34;100323.47;5362382;26;32853;-80
2023/09/15 07:39:37;;;;;;;1.95;1.05;;;;;;;24.97;52.02;100315.44;5346246;26;33352;-80
2023/09/15 07:42:08;;;;;;;0.73;0.70;;;;;;;24.84;49.80;100314.91;5345113;26;33971;-80
2023/09/15 07:44:40;;;;;;;0.43;0.43;;;;;;;25.14;50.62;100321.94;5346203;26;33239;-80
2023/09/15 07:47:12;;;;;;;0.03;0.03;;;;;;;25.40;48.28;100321.25;5327393;26;33685;-80
2023/09/15 07:49:40;;;;;;;;;;;;;;;25.29;49.21;100319.59;5365184;26;33127;-80
2023/09/15 07:52:07;;;;;;;0.20;0.20;;;;;;;25.66;49.31;100319.56;5345948;26;34184;-80
2023/09/15 07:54:35;;;;;;;0.28;0.28;;;;;;;25.76;49.07;100320.38;5345912;26;34207;-80
2023/09/15 07:57:04;;;;;;;0.10;0.00;;;;;;;25.77;48.42;100318.50;5327830;26;33529;-80
2023/09/15 07:59:31;;;;;;;0.22;0.22;;;;;;;25.90;42.49;100316.28;5327807;26;33039;-80
2023/09/15 08:01:59;;;;;;;4.18;1.30;;;;;;;25.41;44.85;100318.41;5345205;26;33067;-80
2023/09/15 08:04:28;;;;;;;1.85;0.65;;;;;;;24.93;47.67;100316.72;5345893;26;32944;-80
2023/09/15 08:06:56;;;;;;;1.00;0.82;;;;;;;25.11;47.52;100313.28;5345335;26;33081;-80
2023/09/15 08:09:23;;;;;;;0.45;0.40;;;;;;;25.38;46.98;100317.84;5345133;26;33396;-80
2023/09/15 08:11:54;;;;;;;0.37;0.35;;;;;;;25.73;46.60;100320.66;5346058;26;33816;-80
2023/09/15 08:14:22;;;;;;;0.32;0.32;;;;;;;25.94;46.82;100314.13;5345196;26;33239;-80
2023/09/15 08:16:49;;;;;;;0.73;0.52;;;;;;;25.62;45.91;100315.44;5364248;26;34076;-80
2023/09/15 08:19:18;;;;;;;2.28;0.82;;;;;;;26.08;46.05;100319.03;5327027;26;32387;-80
2023/09/15 08:21:46;;;;;;;0.30;0.30;;;;;;;25.91;43.89;100307.16;5345862;26;33220;-80
2023/09/15 08:24:14;;;;;;;0.28;0.28;;;;;;;26.08;44.16;100310.91;5364093;26;33903;-80
2023/09/15 08:26:41;;;;;;;0.43;0.43;;;;;;;26.21;43.64;100311.37;5364350;26;33931;-80
2023/09/15 08:29:14;;;;;;;0.00;0.00;;;;;;;26.18;44.52;100311.66;5364158;26;34184;-80
2023/09/15 08:31:42;;;;;;;0.60;0.57;;;;;;;26.43;44.08;100303.78;5346184;26;33682;-80
2023/09/15 08:34:10;;;;;;;0.43;0.35;;;;;;;26.24;43.00;100305.63;5344513;26;33551;-80
2023/09/15 08:36:38;;;;;;;0.40;0.30;;;;;;;26.13;42.94;100300.47;5345459;26;33736;-80
2023/09/15 08:39:06;;;;;;;0.47;0.47;;;;;;;26.62;43.05;100292.75;5327681;26;32482;-80
2023/09/15 08:41:44;;;;;;;0.10;0.10;;;;;;;26.96;41.15;100291.94;5365240;26;33533;-80
2023/09/15 08:44:16;;;;;;;0.30;0.10;;;;;;;26.75;40.39;100281.50;5349208;26;32932;-80
2023/09/15 08:46:45;;;;;;;1.23;1.08;;;;;;;26.90;40.51;100289.88;5368478;26;33631;-80
2023/09/15 08:49:14;;;;;;;0.15;0.15;;;;;;;27.40;40.42;100281.03;5349735;26;33372;-80
2023/09/15 08:51:44;;;;;;;0.17;0.17;;;;;;;27.08;40.45;100279.88;5349376;26;34379;-80
2023/09/15 08:54:12;;;;;;;0.20;0.20;;;;;;;26.83;40.07;100283.44;5367041;26;33997;-80
2023/09/15 08:56:45;;;;;;;0.62;0.62;;;;;;;26.84;39.19;100287.84;5349474;26;33259;-80
2023/09/15 08:59:14;;;;;;;0.52;0.40;;;;;;;27.19;38.98;100285.00;5349516;26;33341;-79
2023/09/15 09:01:42;;;;;;;0.60;0.32;;;;;;;27.06;39.88;100289.97;5368385;26;33838;-79
2023/09/15 09:04:10;;;;;;;4.12;1.08;;;;;;;27.20;39.31;100286.69;5346152;26;34196;-80
2023/09/15 09:06:39;;;;;;;0.45;0.40;;;;;;;27.64;39.16;100291.94;5346801;26;33622;-80
2023/09/15 09:09:07;;;;;;;6.72;0.70;;;;;;;27.47;38.44;100292.91;5365333;26;33079;-80
2023/09/15 09:11:35;;;;;;;0.30;0.30;;;;;;;27.64;38.04;100296.53;5346928;26;33793;-80
2023/09/15 09:14:10;;;;;;;0.10;0.10;;;;;;;27.10;38.64;100296.81;5365762;26;33707;-80
2023/09/15 09:16:44;;;;;;;0.65;0.50;;;;;;;27.78;38.05;100290.50;5329467;26;33519;-80
2023/09/15 09:19:12;;;;;;;0.90;0.45;;;;;;;28.26;37.13;100288.84;5346578;26;32238;-80
2023/09/15 09:21:40;;;;;;;4.37;1.33;;;;;;;28.03;37.46;100288.66;5365347;26;33370;-80
2023/09/15 09:24:09;;;;;;;0.55;0.55;;;;;;;27.62;38.45;100288.53;5328279;26;33421;-80
2023/09/15 09:26:38;;;;;;;0.20;0.20;;;;;;;28.01;37.17;100293.38;5363908;26;34172;-80
2023/09/15 09:29:05;;;;;;;0.20;0.20;;;;;;;27.80;36.77;100289.28;5346627;26;33183;-80
2023/09/15 09:31:35;;;;;;;0.10;0.10;;;;;;;27.71;37.51;100289.41;5365163;26;33466;-80
2023/09/15 09:34:04;;;;;;;0.57;0.50;;;;;;;27.60;38.33;100293.28;5384429;26;33532;-80
2023/09/15 09:36:32;;;;;;;3.17;1.15;;;;;;;27.39;38.61;100287.44;5364082;26;33053;-80
2023/09/15 09:39:00;;;;;;;0.57;0.55;;;;;;;27.24;39.02;100290.78;5365086;26;33362;-80
2023/09/15 09:41:28;;;;;;;0.93;0.55;;;;;;;27.62;36.37;100288.53;5346177;26;33649;-80
2023/09/15 09:44:03;;;;;;;0.30;0.30;;;;;;;27.52;36.97;100287.84;5346380;26;33781;-80
2023/09/15 09:46:32;;;;;;;0.30;0.30;;;;;;;27.73;36.14;100288.28;5346770;26;33501;-80
2023/09/15 09:49:00;;;;;;;0.35;0.35;;;;;;;28.19;35.40;100285.94;5327055;26;32339;-80
2023/09/15 09:51:29;;;;;;;0.57;0.40;;;;;;;28.18;35.29;100289.69;5327640;26;32713;-80
2023/09/15 09:53:56;;;;;;;0.10;0.10;;;;;;;28.40;35.22;100284.66;5345725;26;34286;-82
2023/09/15 09:56:24;;;;;;;0.47;0.47;;;;;;;28.31;34.95;100290.03;5346348;26;33500;-81
2023/09/15 09:58:52;;;;;;;0.62;0.40;;;;;;;27.73;35.56;100291.00;5328368;26;32516;-79
2023/09/15 10:01:20;;;;;;;0.10;0.10;;;;;;;27.71;36.65;100295.72;5365367;26;33590;-81
2023/09/15 10:03:48;;;;;;;1.00;0.65;;;;;;;27.88;38.24;100293.06;5345918;26;32906;-81
2023/09/15 10:06:17;;;;;;;1.00;0.85;;;;;;;28.16;35.70;100291.72;5385011;26;34244;-81
2023/09/15 10:08:46;;;;;;;1.40;0.57;;;;;;;27.99;35.67;100292.72;5346194;26;34100;-81
2023/09/15 10:11:15;;;;;;;0.77;0.40;;;;;;;27.87;36.96;100288.63;5364130;26;33891;-81
2023/09/15 10:13:42;;;;;;;0.30;0.30;;;;;;;28.27;35.83;100285.97;5327349;26;33173;-81
2023/09/15 10:16:10;;;;;;;0.40;0.40;;;;;;;28.65;34.27;100283.59;5326746;26;32623;-81
2023/09/15 10:18:38;;;;;;;0.15;0.15;;;;;;;28.68;35.71;100283.25;5344966;26;33542;-81
2023/09/15 10:21:06;;;;;;;0.28;0.20;;;;;;;28.76;35.79;100275.06;5346238;26;33249;-81
2023/09/15 10:23:35;;;;;;;3.75;0.25;;;;;;;28.54;36.27;100276.66;5327629;26;34146;-80
2023/09/15 10:26:06;;;;;;;0.37;0.22;;;;;;;28.33;36.03;100282.56;5346259;26;34636;-81
2023/09/15 10:28:34;;;;;;;1.45;0.88;;;;;;;28.39;35.47;100283.81;5347664;26;32748;-81
2023/09/15 10:31:23;;;;;;;0.47;0.35;;;;;;;28.10;35.47;100277.97;5300968;27;33810;-81
2023/09/15 10:33:51;;;;;;;3.35;0.22;;;;;;;28.00;35.46;100280.84;5279390;27;33043;-80
2023/09/15 10:36:21;;;;;;;0.40;0.40;;;;;;;27.93;35.99;100279.84;5316148;27;33687;-80
2023/09/15 10:38:49;;;;;;;1.20;0.40;;;;;;;28.03;35.17;100275.09;5316216;27;32961;-80
2023/09/15 10:41:25;;;;;;;0.10;0.10;;;;;;;27.59;35.89;100275.31;5278881;27;34288;-80
2023/09/15 10:43:53;;;;;;;0.13;0.13;;;;;;;26.60;39.02;100278.53;5297050;27;33775;-80
2023/09/15 10:46:21;;;;;;;0.65;0.60;;;;;;;26.99;37.77;100272.66;5297606;27;34184;-80
2023/09/15 10:48:48;;;;;;;0.30;0.30;;;;;;;27.22;37.63;100271.13;5309987;26;33355;-81
2023/09/15 10:51:18;;;;;;;0.77;0.77;;;;;;;27.33;37.53;100278.09;5348188;26;33785;-81
2023/09/15 10:53:56;;;;;;;0.35;0.35;;;;;;;27.33;37.12;100272.69;5366145;26;33617;-80
2023/09/15 10:56:24;;;;;;;0.30;0.20;;;;;;;27.17;37.73;100272.62;5346177;26;32789;-81
2023/09/15 10:58:53;;;;;;;0.60;0.60;;;;;;;27.25;37.30;100269.94;5328515;26;32472;-80
2023/09/15 11:01:20;;;;;;;2.25;0.45;;;;;;;27.44;37.77;100266.09;5347602;26;34038;-80
2023/09/15 11:03:50;;;;;;;2.12;1.00;;;;;;;27.30;37.71;100265.75;5347628;26;33859;-80
2023/09/15 11:06:18;;;;;;;1.05;0.68;;;;;;;26.97;38.28;100274.72;5327845;26;33272;-80
2023/09/15 11:08:48;;;;;;;0.08;0.08;;;;;;;26.91;38.96;100275.31;5347279;26;32893;-80
2023/09/15 11:11:17;;;;;;;0.15;0.15;;;;;;;27.22;40.94;100271.13;5328042;26;32990;-80
2023/09/15 11:13:44;;;;;;;1.20;0.43;;;;;;;27.77;38.18;100262.53;5346821;26;34747;-80
2023/09/15 11:16:12;;;;;;;0.50;0.50;;;;;;;28.61;36.54;100255.06;5365439;26;34568;-80
2023/09/15 11:18:41;;;;;;;1.75;1.45;;;;;;;28.10;37.79;100257.09;5365906;26;33174;-80
2023/09/15 11:21:12;;;;;;;7.43;1.27;;;;;;;28.47;36.76;100269.34;5365346;26;34740;-81
2023/09/15 11:23:44;;;;;;;0.10;0.10;;;;;;;28.75;36.23;100267.94;5347690;26;34704;-80
2023/09/15 11:26:13;;;;;;;0.95;0.95;;;;;;;28.98;36.02;100259.09;5347730;26;33844;-80
2023/09/15 11:28:54;;;;;;;0.17;0.17;;;;;;;29.45;34.66;100263.66;5350997;26;33602;-81
2023/09/15 11:31:22;;;;;;;0.50;0.50;;;;;;;29.57;34.61;100257.63;5347297;26;32933;-80
2023/09/15 11:33:54;;;;;;;1.65;0.37;;;;;;;29.35;34.86;100263.87;5347014;26;32893;-81